sensor_id;sensor_type;location;lat;lon;timestamp;P1;durP1;ratioP1;P2;durP2;ratioP2
31674;SDS011;18276;45.520;11.018;2022-07-29T00:02:25;8.35;;;2.35;;
31674;SDS011;18276;45.520;11.018;2022-07-29T00:04:53;11.55;;;2.45;;
31674;SDS011;18276;45.520;11.018;2022-07-29T00:07:21;7.50;;;2.88;;
31674;SDS011;18276;45.520;11.018;2022-07-29T00:09:48;9.52;;;2.65;;
31674;SDS011;18276;45.520;11.018;2022-07-29T00:12:20;7.90;;;2.53;;
31674;SDS011;18276;45.520;11.018;2022-07-29T00:14:53;9.95;;;2.55;;
31674;SDS011;18276;45.520;11.018;2022-07-29T00:17:21;10.90;;;3.92;;
31674;SDS011;18276;45.520;11.018;2022-07-29T00:19:48;8.05;;;3.17;;
31674;SDS011;18276;45.520;11.018;2022-07-29T00:22:15;18.33;;;3.75;;
31674;SDS011;18276;45.520;11.018;2022-07-29T00:24:43;16.77;;;4.28;;
31674;SDS011;18276;45.520;11.018;2022-07-29T00:27:10;17.75;;;3.65;;
31674;SDS011;18276;45.520;11.018;2022-07-29T00:29:37;11.30;;;3.58;;
31674;SDS011;18276;45.520;11.018;2022-07-29T00:32:04;9.90;;;2.97;;
31674;SDS011;18276;45.520;11.018;2022-07-29T00:34:31;6.55;;;2.97;;
31674;SDS011;18276;45.520;11.018;2022-07-29T00:37:17;8.50;;;3.63;;
31674;SDS011;18276;45.520;11.018;2022-07-29T00:39:44;12.90;;;4.25;;
31674;SDS011;18276;45.520;11.018;2022-07-29T00:42:11;11.75;;;4.15;;
31674;SDS011;18276;45.520;11.018;2022-07-29T00:44:38;17.73;;;4.30;;
31674;SDS011;18276;45.520;11.018;2022-07-29T00:47:07;10.80;;;4.22;;
31674;SDS011;18276;45.520;11.018;2022-07-29T00:49:35;10.23;;;4.45;;
31674;SDS011;18276;45.520;11.018;2022-07-29T00:52:06;7.78;;;3.53;;
31674;SDS011;18276;45.520;11.018;2022-07-29T00:54:34;11.10;;;3.47;;
31674;SDS011;18276;45.520;11.018;2022-07-29T00:57:10;9.15;;;3.85;;
31674;SDS011;18276;45.520;11.018;2022-07-29T00:59:37;6.18;;;3.65;;
31674;SDS011;18276;45.520;11.018;2022-07-29T01:02:04;8.88;;;3.53;;
31674;SDS011;18276;45.520;11.018;2022-07-29T01:04:31;9.93;;;3.65;;
31674;SDS011;18276;45.520;11.018;2022-07-29T01:07:00;13.05;;;4.10;;
31674;SDS011;18276;45.520;11.018;2022-07-29T01:09:29;10.90;;;4.10;;
31674;SDS011;18276;45.520;11.018;2022-07-29T01:12:13;9.70;;;3.22;;
31674;SDS011;18276;45.520;11.018;2022-07-29T01:14:45;5.90;;;3.50;;
31674;SDS011;18276;45.520;11.018;2022-07-29T01:17:18;10.13;;;3.40;;
31674;SDS011;18276;45.520;11.018;2022-07-29T01:19:56;8.00;;;3.10;;
31674;SDS011;18276;45.520;11.018;2022-07-29T01:28:29;10.25;;;3.10;;
31674;SDS011;18276;45.520;11.018;2022-07-29T01:31:11;5.38;;;2.80;;
31674;SDS011;18276;45.520;11.018;2022-07-29T01:33:55;10.15;;;3.13;;
31674;SDS011;18276;45.520;11.018;2022-07-29T01:36:32;7.10;;;2.83;;
31674;SDS011;18276;45.520;11.018;2022-07-29T01:42:05;5.38;;;2.75;;
31674;SDS011;18276;45.520;11.018;2022-07-29T01:50:39;8.00;;;3.15;;
31674;SDS011;18276;45.520;11.018;2022-07-29T01:53:12;8.60;;;2.80;;
31674;SDS011;18276;45.520;11.018;2022-07-29T01:55:47;9.43;;;3.15;;
31674;SDS011;18276;45.520;11.018;2022-07-29T01:58:16;8.13;;;3.03;;
31674;SDS011;18276;45.520;11.018;2022-07-29T02:00:45;7.60;;;2.88;;
31674;SDS011;18276;45.520;11.018;2022-07-29T02:03:14;16.13;;;2.95;;
31674;SDS011;18276;45.520;11.018;2022-07-29T02:05:44;9.70;;;3.60;;
31674;SDS011;18276;45.520;11.018;2022-07-29T02:08:14;3.60;;;2.20;;
31674;SDS011;18276;45.520;11.018;2022-07-29T02:10:43;3.40;;;2.88;;
31674;SDS011;18276;45.520;11.018;2022-07-29T02:13:12;8.20;;;2.97;;
31674;SDS011;18276;45.520;11.018;2022-07-29T02:15:40;7.38;;;2.65;;
31674;SDS011;18276;45.520;11.018;2022-07-29T02:18:10;7.25;;;2.67;;
31674;SDS011;18276;45.520;11.018;2022-07-29T02:20:46;6.60;;;3.38;;
31674;SDS011;18276;45.520;11.018;2022-07-29T02:23:16;7.45;;;2.40;;
31674;SDS011;18276;45.520;11.018;2022-07-29T02:25:47;4.32;;;2.45;;
31674;SDS011;18276;45.520;11.018;2022-07-29T02:28:18;4.03;;;2.42;;
31674;SDS011;18276;45.520;11.018;2022-07-29T02:30:46;6.88;;;2.97;;
31674;SDS011;18276;45.520;11.018;2022-07-29T02:33:16;6.70;;;2.60;;
31674;SDS011;18276;45.520;11.018;2022-07-29T02:35:44;9.48;;;2.45;;
31674;SDS011;18276;45.520;11.018;2022-07-29T02:38:14;7.63;;;2.70;;
31674;SDS011;18276;45.520;11.018;2022-07-29T02:41:03;11.85;;;2.60;;
31674;SDS011;18276;45.520;11.018;2022-07-29T02:43:34;8.57;;;2.88;;
31674;SDS011;18276;45.520;11.018;2022-07-29T02:46:04;5.25;;;2.55;;
31674;SDS011;18276;45.520;11.018;2022-07-29T02:49:08;7.32;;;2.75;;
31674;SDS011;18276;45.520;11.018;2022-07-29T02:51:46;6.57;;;3.00;;
31674;SDS011;18276;45.520;11.018;2022-07-29T02:54:41;7.10;;;2.42;;
31674;SDS011;18276;45.520;11.018;2022-07-29T02:57:27;9.23;;;2.53;;
31674;SDS011;18276;45.520;11.018;2022-07-29T03:00:00;5.53;;;2.33;;
31674;SDS011;18276;45.520;11.018;2022-07-29T03:02:42;6.00;;;2.30;;
31674;SDS011;18276;45.520;11.018;2022-07-29T03:05:15;4.05;;;2.10;;
31674;SDS011;18276;45.520;11.018;2022-07-29T03:07:46;6.05;;;2.33;;
31674;SDS011;18276;45.520;11.018;2022-07-29T03:10:25;5.32;;;2.22;;
31674;SDS011;18276;45.520;11.018;2022-07-29T03:12:54;6.88;;;2.63;;
31674;SDS011;18276;45.520;11.018;2022-07-29T03:15:22;4.45;;;2.50;;
31674;SDS011;18276;45.520;11.018;2022-07-29T03:17:50;5.03;;;2.55;;
31674;SDS011;18276;45.520;11.018;2022-07-29T03:20:19;6.88;;;2.72;;
31674;SDS011;18276;45.520;11.018;2022-07-29T03:22:46;4.82;;;2.83;;
31674;SDS011;18276;45.520;11.018;2022-07-29T03:25:14;7.25;;;2.83;;
31674;SDS011;18276;45.520;11.018;2022-07-29T03:27:42;3.70;;;2.50;;
31674;SDS011;18276;45.520;11.018;2022-07-29T03:30:11;8.00;;;2.55;;
31674;SDS011;18276;45.520;11.018;2022-07-29T03:32:47;4.35;;;2.78;;
31674;SDS011;18276;45.520;11.018;2022-07-29T03:35:17;9.02;;;3.15;;
31674;SDS011;18276;45.520;11.018;2022-07-29T03:37:46;3.78;;;2.55;;
31674;SDS011;18276;45.520;11.018;2022-07-29T03:40:14;4.15;;;2.60;;
31674;SDS011;18276;45.520;11.018;2022-07-29T03:42:49;7.38;;;3.15;;
31674;SDS011;18276;45.520;11.018;2022-07-29T03:45:19;7.10;;;3.30;;
31674;SDS011;18276;45.520;11.018;2022-07-29T03:47:55;3.53;;;2.58;;
31674;SDS011;18276;45.520;11.018;2022-07-29T03:50:29;5.90;;;3.05;;
31674;SDS011;18276;45.520;11.018;2022-07-29T03:52:57;8.00;;;3.00;;
31674;SDS011;18276;45.520;11.018;2022-07-29T03:55:25;3.58;;;2.58;;
31674;SDS011;18276;45.520;11.018;2022-07-29T03:57:54;6.57;;;2.90;;
31674;SDS011;18276;45.520;11.018;2022-07-29T04:00:23;11.23;;;3.45;;
31674;SDS011;18276;45.520;11.018;2022-07-29T04:02:51;6.18;;;2.78;;
31674;SDS011;18276;45.520;11.018;2022-07-29T04:05:19;3.78;;;2.60;;
31674;SDS011;18276;45.520;11.018;2022-07-29T04:07:46;7.35;;;3.00;;
31674;SDS011;18276;45.520;11.018;2022-07-29T04:10:14;7.00;;;2.70;;
31674;SDS011;18276;45.520;11.018;2022-07-29T04:12:55;6.70;;;3.60;;
31674;SDS011;18276;45.520;11.018;2022-07-29T04:15:22;6.63;;;3.65;;
31674;SDS011;18276;45.520;11.018;2022-07-29T04:17:49;5.38;;;3.15;;
31674;SDS011;18276;45.520;11.018;2022-07-29T04:20:17;4.53;;;3.47;;
31674;SDS011;18276;45.520;11.018;2022-07-29T04:22:44;6.97;;;3.30;;
31674;SDS011;18276;45.520;11.018;2022-07-29T04:25:11;12.88;;;3.67;;
31674;SDS011;18276;45.520;11.018;2022-07-29T04:27:38;6.82;;;3.17;;
31674;SDS011;18276;45.520;11.018;2022-07-29T04:30:25;6.50;;;3.42;;
31674;SDS011;18276;45.520;11.018;2022-07-29T04:32:53;10.95;;;3.85;;
31674;SDS011;18276;45.520;11.018;2022-07-29T04:35:20;12.48;;;4.18;;
31674;SDS011;18276;45.520;11.018;2022-07-29T04:37:47;10.57;;;4.07;;
31674;SDS011;18276;45.520;11.018;2022-07-29T04:40:14;10.80;;;4.03;;
31674;SDS011;18276;45.520;11.018;2022-07-29T04:42:41;7.35;;;3.90;;
31674;SDS011;18276;45.520;11.018;2022-07-29T04:45:12;5.72;;;3.83;;
31674;SDS011;18276;45.520;11.018;2022-07-29T04:47:39;6.63;;;3.55;;
31674;SDS011;18276;45.520;11.018;2022-07-29T04:50:07;7.03;;;3.95;;
31674;SDS011;18276;45.520;11.018;2022-07-29T04:52:35;7.93;;;3.90;;
31674;SDS011;18276;45.520;11.018;2022-07-29T04:55:03;6.88;;;4.28;;
31674;SDS011;18276;45.520;11.018;2022-07-29T04:57:31;14.27;;;4.70;;
31674;SDS011;18276;45.520;11.018;2022-07-29T04:59:58;7.53;;;3.88;;
31674;SDS011;18276;45.520;11.018;2022-07-29T05:02:25;9.88;;;4.35;;
31674;SDS011;18276;45.520;11.018;2022-07-29T05:04:52;8.80;;;3.58;;
31674;SDS011;18276;45.520;11.018;2022-07-29T05:07:19;9.32;;;4.18;;
31674;SDS011;18276;45.520;11.018;2022-07-29T05:09:46;13.30;;;5.35;;
31674;SDS011;18276;45.520;11.018;2022-07-29T05:12:13;9.02;;;3.90;;
31674;SDS011;18276;45.520;11.018;2022-07-29T05:14:40;19.05;;;4.53;;
31674;SDS011;18276;45.520;11.018;2022-07-29T05:17:07;6.28;;;3.50;;
31674;SDS011;18276;45.520;11.018;2022-07-29T05:19:34;8.60;;;3.97;;
31674;SDS011;18276;45.520;11.018;2022-07-29T05:22:05;8.45;;;3.75;;
31674;SDS011;18276;45.520;11.018;2022-07-29T05:24:32;8.90;;;4.13;;
31674;SDS011;18276;45.520;11.018;2022-07-29T05:26:59;13.07;;;3.88;;
31674;SDS011;18276;45.520;11.018;2022-07-29T05:29:26;13.05;;;4.30;;
31674;SDS011;18276;45.520;11.018;2022-07-29T05:32:10;9.52;;;4.15;;
31674;SDS011;18276;45.520;11.018;2022-07-29T05:34:38;4.85;;;3.80;;
31674;SDS011;18276;45.520;11.018;2022-07-29T05:37:16;6.32;;;3.60;;
31674;SDS011;18276;45.520;11.018;2022-07-29T05:39:46;6.03;;;3.80;;
31674;SDS011;18276;45.520;11.018;2022-07-29T05:42:23;7.32;;;3.75;;
31674;SDS011;18276;45.520;11.018;2022-07-29T05:44:51;5.93;;;3.95;;
31674;SDS011;18276;45.520;11.018;2022-07-29T05:47:18;11.52;;;4.88;;
31674;SDS011;18276;45.520;11.018;2022-07-29T05:49:45;5.13;;;4.10;;
31674;SDS011;18276;45.520;11.018;2022-07-29T05:52:12;5.57;;;4.03;;
31674;SDS011;18276;45.520;11.018;2022-07-29T05:54:39;6.35;;;4.43;;
31674;SDS011;18276;45.520;11.018;2022-07-29T05:57:07;10.07;;;4.25;;
31674;SDS011;18276;45.520;11.018;2022-07-29T05:59:37;25.50;;;4.90;;
31674;SDS011;18276;45.520;11.018;2022-07-29T06:02:04;9.27;;;4.13;;
31674;SDS011;18276;45.520;11.018;2022-07-29T06:04:32;8.48;;;4.10;;
31674;SDS011;18276;45.520;11.018;2022-07-29T06:07:00;9.35;;;3.70;;
31674;SDS011;18276;45.520;11.018;2022-07-29T06:09:28;13.52;;;3.88;;
31674;SDS011;18276;45.520;11.018;2022-07-29T06:11:55;10.48;;;4.20;;
31674;SDS011;18276;45.520;11.018;2022-07-29T06:14:24;10.32;;;3.75;;
31674;SDS011;18276;45.520;11.018;2022-07-29T06:16:52;9.18;;;3.92;;
31674;SDS011;18276;45.520;11.018;2022-07-29T06:19:19;15.05;;;4.32;;
31674;SDS011;18276;45.520;11.018;2022-07-29T06:21:46;5.63;;;3.78;;
31674;SDS011;18276;45.520;11.018;2022-07-29T06:24:14;11.55;;;4.13;;
31674;SDS011;18276;45.520;11.018;2022-07-29T06:26:42;12.10;;;4.43;;
31674;SDS011;18276;45.520;11.018;2022-07-29T06:29:10;9.90;;;4.55;;
31674;SDS011;18276;45.520;11.018;2022-07-29T06:31:37;9.70;;;4.13;;
31674;SDS011;18276;45.520;11.018;2022-07-29T06:34:04;7.07;;;4.05;;
31674;SDS011;18276;45.520;11.018;2022-07-29T06:36:35;11.27;;;4.15;;
31674;SDS011;18276;45.520;11.018;2022-07-29T06:39:06;13.57;;;4.90;;
31674;SDS011;18276;45.520;11.018;2022-07-29T06:41:34;9.50;;;4.22;;
31674;SDS011;18276;45.520;11.018;2022-07-29T06:44:08;10.65;;;4.53;;
31674;SDS011;18276;45.520;11.018;2022-07-29T06:46:35;7.85;;;4.45;;
31674;SDS011;18276;45.520;11.018;2022-07-29T06:49:03;6.10;;;4.00;;
31674;SDS011;18276;45.520;11.018;2022-07-29T06:51:30;8.15;;;4.25;;
31674;SDS011;18276;45.520;11.018;2022-07-29T06:53:57;12.25;;;4.75;;
31674;SDS011;18276;45.520;11.018;2022-07-29T06:56:29;8.20;;;4.47;;
31674;SDS011;18276;45.520;11.018;2022-07-29T06:59:04;12.55;;;4.80;;
31674;SDS011;18276;45.520;11.018;2022-07-29T07:01:31;10.75;;;4.47;;
31674;SDS011;18276;45.520;11.018;2022-07-29T07:03:58;10.57;;;5.38;;
31674;SDS011;18276;45.520;11.018;2022-07-29T07:06:25;10.35;;;4.97;;
31674;SDS011;18276;45.520;11.018;2022-07-29T07:08:52;8.93;;;4.95;;
31674;SDS011;18276;45.520;11.018;2022-07-29T07:11:19;8.73;;;4.85;;
31674;SDS011;18276;45.520;11.018;2022-07-29T07:13:47;14.63;;;5.57;;
31674;SDS011;18276;45.520;11.018;2022-07-29T07:16:14;7.35;;;4.65;;
31674;SDS011;18276;45.520;11.018;2022-07-29T07:18:41;10.27;;;4.50;;
31674;SDS011;18276;45.520;11.018;2022-07-29T07:21:08;9.73;;;4.57;;
31674;SDS011;18276;45.520;11.018;2022-07-29T07:23:35;9.23;;;4.85;;
31674;SDS011;18276;45.520;11.018;2022-07-29T07:26:02;8.18;;;4.53;;
31674;SDS011;18276;45.520;11.018;2022-07-29T07:28:29;6.15;;;4.75;;
31674;SDS011;18276;45.520;11.018;2022-07-29T07:30:57;6.18;;;4.15;;
31674;SDS011;18276;45.520;11.018;2022-07-29T07:33:24;7.38;;;4.30;;
31674;SDS011;18276;45.520;11.018;2022-07-29T07:35:51;7.90;;;3.85;;
31674;SDS011;18276;45.520;11.018;2022-07-29T07:38:18;9.70;;;4.70;;
31674;SDS011;18276;45.520;11.018;2022-07-29T07:40:45;7.32;;;4.18;;
31674;SDS011;18276;45.520;11.018;2022-07-29T07:43:12;5.85;;;4.00;;
31674;SDS011;18276;45.520;11.018;2022-07-29T07:45:39;8.70;;;4.55;;
31674;SDS011;18276;45.520;11.018;2022-07-29T07:48:07;6.55;;;3.75;;
31674;SDS011;18276;45.520;11.018;2022-07-29T07:50:36;7.85;;;4.10;;
31674;SDS011;18276;45.520;11.018;2022-07-29T07:53:03;8.13;;;4.55;;
31674;SDS011;18276;45.520;11.018;2022-07-29T07:55:30;8.65;;;4.13;;
31674;SDS011;18276;45.520;11.018;2022-07-29T07:58:17;7.65;;;4.35;;
31674;SDS011;18276;45.520;11.018;2022-07-29T08:00:44;10.98;;;4.47;;
31674;SDS011;18276;45.520;11.018;2022-07-29T08:03:12;15.75;;;4.60;;
31674;SDS011;18276;45.520;11.018;2022-07-29T08:05:42;5.78;;;4.65;;
31674;SDS011;18276;45.520;11.018;2022-07-29T08:08:10;6.82;;;5.47;;
31674;SDS011;18276;45.520;11.018;2022-07-29T08:10:37;7.63;;;4.00;;
31674;SDS011;18276;45.520;11.018;2022-07-29T08:13:19;7.95;;;4.72;;
31674;SDS011;18276;45.520;11.018;2022-07-29T08:15:48;11.20;;;4.70;;
31674;SDS011;18276;45.520;11.018;2022-07-29T08:18:24;12.00;;;5.07;;
31674;SDS011;18276;45.520;11.018;2022-07-29T08:20:55;11.02;;;5.50;;
31674;SDS011;18276;45.520;11.018;2022-07-29T08:23:23;13.13;;;5.32;;
31674;SDS011;18276;45.520;11.018;2022-07-29T08:25:50;18.00;;;4.80;;
31674;SDS011;18276;45.520;11.018;2022-07-29T08:28:20;8.43;;;4.75;;
31674;SDS011;18276;45.520;11.018;2022-07-29T08:30:51;15.95;;;5.03;;
31674;SDS011;18276;45.520;11.018;2022-07-29T08:33:18;14.32;;;4.60;;
31674;SDS011;18276;45.520;11.018;2022-07-29T08:35:45;7.38;;;4.60;;
31674;SDS011;18276;45.520;11.018;2022-07-29T08:38:13;8.32;;;4.78;;
31674;SDS011;18276;45.520;11.018;2022-07-29T08:40:40;10.15;;;5.28;;
31674;SDS011;18276;45.520;11.018;2022-07-29T08:43:07;11.52;;;5.05;;
31674;SDS011;18276;45.520;11.018;2022-07-29T08:45:57;10.07;;;4.68;;
31674;SDS011;18276;45.520;11.018;2022-07-29T08:48:23;18.05;;;5.47;;
31674;SDS011;18276;45.520;11.018;2022-07-29T08:50:54;11.13;;;5.43;;
31674;SDS011;18276;45.520;11.018;2022-07-29T08:53:23;9.05;;;5.00;;
31674;SDS011;18276;45.520;11.018;2022-07-29T08:55:53;13.57;;;5.30;;
31674;SDS011;18276;45.520;11.018;2022-07-29T08:58:21;7.53;;;4.82;;
31674;SDS011;18276;45.520;11.018;2022-07-29T09:00:51;14.30;;;5.45;;
31674;SDS011;18276;45.520;11.018;2022-07-29T09:05:51;8.82;;;4.80;;
31674;SDS011;18276;45.520;11.018;2022-07-29T09:08:18;18.77;;;5.57;;
31674;SDS011;18276;45.520;11.018;2022-07-29T09:10:46;8.05;;;4.90;;
31674;SDS011;18276;45.520;11.018;2022-07-29T09:13:14;7.40;;;5.18;;
31674;SDS011;18276;45.520;11.018;2022-07-29T09:15:41;12.25;;;5.03;;
31674;SDS011;18276;45.520;11.018;2022-07-29T09:18:08;7.38;;;5.05;;
31674;SDS011;18276;45.520;11.018;2022-07-29T09:20:55;5.68;;;4.57;;
31674;SDS011;18276;45.520;11.018;2022-07-29T09:23:40;5.20;;;4.70;;
31674;SDS011;18276;45.520;11.018;2022-07-29T09:26:09;7.95;;;4.75;;
31674;SDS011;18276;45.520;11.018;2022-07-29T09:28:36;9.32;;;5.45;;
31674;SDS011;18276;45.520;11.018;2022-07-29T09:31:08;5.70;;;4.38;;
31674;SDS011;18276;45.520;11.018;2022-07-29T09:33:35;10.27;;;4.97;;
31674;SDS011;18276;45.520;11.018;2022-07-29T09:36:06;5.65;;;5.18;;
31674;SDS011;18276;45.520;11.018;2022-07-29T09:38:34;5.00;;;4.50;;
31674;SDS011;18276;45.520;11.018;2022-07-29T09:41:03;6.28;;;4.68;;
31674;SDS011;18276;45.520;11.018;2022-07-29T09:43:32;6.55;;;4.50;;
31674;SDS011;18276;45.520;11.018;2022-07-29T09:46:10;9.02;;;4.70;;
31674;SDS011;18276;45.520;11.018;2022-07-29T09:48:38;7.90;;;4.70;;
31674;SDS011;18276;45.520;11.018;2022-07-29T09:51:05;6.20;;;5.40;;
31674;SDS011;18276;45.520;11.018;2022-07-29T09:53:53;7.32;;;4.80;;
31674;SDS011;18276;45.520;11.018;2022-07-29T09:56:28;8.52;;;4.72;;
31674;SDS011;18276;45.520;11.018;2022-07-29T09:59:08;6.70;;;5.13;;
31674;SDS011;18276;45.520;11.018;2022-07-29T10:01:37;7.68;;;4.82;;
31674;SDS011;18276;45.520;11.018;2022-07-29T10:04:04;7.05;;;5.55;;
31674;SDS011;18276;45.520;11.018;2022-07-29T10:06:31;6.60;;;5.22;;
31674;SDS011;18276;45.520;11.018;2022-07-29T10:09:10;7.18;;;5.25;;
31674;SDS011;18276;45.520;11.018;2022-07-29T10:11:37;5.88;;;5.28;;
31674;SDS011;18276;45.520;11.018;2022-07-29T10:14:21;6.18;;;5.05;;
31674;SDS011;18276;45.520;11.018;2022-07-29T10:16:48;8.95;;;5.30;;
31674;SDS011;18276;45.520;11.018;2022-07-29T10:19:15;6.90;;;5.10;;
31674;SDS011;18276;45.520;11.018;2022-07-29T10:21:43;6.13;;;5.10;;
31674;SDS011;18276;45.520;11.018;2022-07-29T10:24:11;10.07;;;6.10;;
31674;SDS011;18276;45.520;11.018;2022-07-29T10:26:40;12.38;;;6.78;;
31674;SDS011;18276;45.520;11.018;2022-07-29T10:29:08;9.57;;;5.57;;
31674;SDS011;18276;45.520;11.018;2022-07-29T10:40:21;12.32;;;6.65;;
31674;SDS011;18276;45.520;11.018;2022-07-29T10:43:23;6.00;;;5.45;;
31674;SDS011;18276;45.520;11.018;2022-07-29T10:48:24;9.30;;;5.80;;
31674;SDS011;18276;45.520;11.018;2022-07-29T10:50:51;6.10;;;5.50;;
31674;SDS011;18276;45.520;11.018;2022-07-29T10:53:23;7.15;;;6.25;;
31674;SDS011;18276;45.520;11.018;2022-07-29T10:55:52;7.07;;;5.60;;
31674;SDS011;18276;45.520;11.018;2022-07-29T10:58:20;8.50;;;6.10;;
31674;SDS011;18276;45.520;11.018;2022-07-29T11:00:50;11.23;;;5.80;;
31674;SDS011;18276;45.520;11.018;2022-07-29T11:03:52;11.30;;;5.60;;
31674;SDS011;18276;45.520;11.018;2022-07-29T11:06:16;8.75;;;6.03;;
31674;SDS011;18276;45.520;11.018;2022-07-29T11:09:15;9.63;;;5.65;;
31674;SDS011;18276;45.520;11.018;2022-07-29T11:12:03;7.82;;;6.10;;
31674;SDS011;18276;45.520;11.018;2022-07-29T11:17:23;7.22;;;5.82;;
31674;SDS011;18276;45.520;11.018;2022-07-29T11:19:50;7.95;;;5.47;;
31674;SDS011;18276;45.520;11.018;2022-07-29T11:22:33;5.85;;;5.25;;
31674;SDS011;18276;45.520;11.018;2022-07-29T11:25:14;7.57;;;5.78;;
31674;SDS011;18276;45.520;11.018;2022-07-29T11:27:43;8.75;;;5.45;;
31674;SDS011;18276;45.520;11.018;2022-07-29T11:30:11;6.35;;;5.25;;
31674;SDS011;18276;45.520;11.018;2022-07-29T11:32:40;10.45;;;5.05;;
31674;SDS011;18276;45.520;11.018;2022-07-29T11:35:17;10.18;;;5.82;;
31674;SDS011;18276;45.520;11.018;2022-07-29T11:38:24;9.60;;;5.20;;
31674;SDS011;18276;45.520;11.018;2022-07-29T11:43:51;7.78;;;5.50;;
31674;SDS011;18276;45.520;11.018;2022-07-29T11:47:03;6.88;;;5.35;;
31674;SDS011;18276;45.520;11.018;2022-07-29T11:49:24;18.00;;;5.57;;
31674;SDS011;18276;45.520;11.018;2022-07-29T11:51:58;5.53;;;5.03;;
31674;SDS011;18276;45.520;11.018;2022-07-29T11:54:32;6.78;;;5.57;;
31674;SDS011;18276;45.520;11.018;2022-07-29T11:57:21;6.13;;;5.28;;
31674;SDS011;18276;45.520;11.018;2022-07-29T12:00:03;7.55;;;6.10;;
31674;SDS011;18276;45.520;11.018;2022-07-29T12:02:38;8.45;;;5.20;;
31674;SDS011;18276;45.520;11.018;2022-07-29T12:05:09;8.95;;;5.65;;
31674;SDS011;18276;45.520;11.018;2022-07-29T12:07:39;6.45;;;5.50;;
31674;SDS011;18276;45.520;11.018;2022-07-29T12:12:55;7.47;;;5.70;;
31674;SDS011;18276;45.520;11.018;2022-07-29T12:15:22;7.90;;;5.40;;
31674;SDS011;18276;45.520;11.018;2022-07-29T12:18:19;8.25;;;4.93;;
31674;SDS011;18276;45.520;11.018;2022-07-29T12:20:56;7.30;;;5.30;;
31674;SDS011;18276;45.520;11.018;2022-07-29T12:23:29;9.70;;;5.65;;
31674;SDS011;18276;45.520;11.018;2022-07-29T12:26:04;7.10;;;5.40;;
31674;SDS011;18276;45.520;11.018;2022-07-29T12:28:37;7.78;;;5.30;;
31674;SDS011;18276;45.520;11.018;2022-07-29T12:31:05;8.55;;;4.85;;
31674;SDS011;18276;45.520;11.018;2022-07-29T12:33:33;5.65;;;4.95;;
31674;SDS011;18276;45.520;11.018;2022-07-29T12:36:01;9.85;;;6.18;;
31674;SDS011;18276;45.520;11.018;2022-07-29T12:38:39;5.95;;;4.70;;
31674;SDS011;18276;45.520;11.018;2022-07-29T12:41:07;8.40;;;4.70;;
31674;SDS011;18276;45.520;11.018;2022-07-29T12:43:34;6.70;;;5.30;;
31674;SDS011;18276;45.520;11.018;2022-07-29T12:46:13;8.82;;;5.00;;
31674;SDS011;18276;45.520;11.018;2022-07-29T12:48:42;5.70;;;4.60;;
31674;SDS011;18276;45.520;11.018;2022-07-29T12:51:10;6.63;;;4.80;;
31674;SDS011;18276;45.520;11.018;2022-07-29T12:53:40;5.32;;;4.65;;
31674;SDS011;18276;45.520;11.018;2022-07-29T12:56:14;8.93;;;5.13;;
31674;SDS011;18276;45.520;11.018;2022-07-29T12:59:15;7.05;;;5.35;;
31674;SDS011;18276;45.520;11.018;2022-07-29T13:01:48;8.77;;;4.75;;
31674;SDS011;18276;45.520;11.018;2022-07-29T13:04:32;6.93;;;5.47;;
31674;SDS011;18276;45.520;11.018;2022-07-29T13:07:03;7.85;;;5.57;;
31674;SDS011;18276;45.520;11.018;2022-07-29T13:09:36;5.70;;;4.85;;
31674;SDS011;18276;45.520;11.018;2022-07-29T13:12:12;7.35;;;4.90;;
31674;SDS011;18276;45.520;11.018;2022-07-29T13:14:45;14.05;;;5.70;;
31674;SDS011;18276;45.520;11.018;2022-07-29T13:17:14;7.15;;;4.82;;
31674;SDS011;18276;45.520;11.018;2022-07-29T13:19:49;6.20;;;5.10;;
31674;SDS011;18276;45.520;11.018;2022-07-29T13:22:19;7.05;;;5.30;;
31674;SDS011;18276;45.520;11.018;2022-07-29T13:24:51;5.78;;;4.75;;
31674;SDS011;18276;45.520;11.018;2022-07-29T13:27:21;7.88;;;5.35;;
31674;SDS011;18276;45.520;11.018;2022-07-29T13:29:50;6.32;;;5.72;;
31674;SDS011;18276;45.520;11.018;2022-07-29T13:32:19;6.07;;;4.88;;
31674;SDS011;18276;45.520;11.018;2022-07-29T13:34:57;7.15;;;5.15;;
31674;SDS011;18276;45.520;11.018;2022-07-29T13:37:31;8.70;;;5.70;;
31674;SDS011;18276;45.520;11.018;2022-07-29T13:40:01;8.43;;;5.82;;
31674;SDS011;18276;45.520;11.018;2022-07-29T13:42:29;6.70;;;5.38;;
31674;SDS011;18276;45.520;11.018;2022-07-29T13:44:58;8.80;;;5.68;;
31674;SDS011;18276;45.520;11.018;2022-07-29T13:47:26;8.10;;;5.22;;
31674;SDS011;18276;45.520;11.018;2022-07-29T13:50:01;8.18;;;5.57;;
31674;SDS011;18276;45.520;11.018;2022-07-29T13:52:32;8.55;;;4.97;;
31674;SDS011;18276;45.520;11.018;2022-07-29T13:54:59;9.20;;;4.60;;
31674;SDS011;18276;45.520;11.018;2022-07-29T13:57:27;7.63;;;5.57;;
31674;SDS011;18276;45.520;11.018;2022-07-29T13:59:54;9.23;;;5.50;;
31674;SDS011;18276;45.520;11.018;2022-07-29T14:02:22;5.72;;;4.70;;
31674;SDS011;18276;45.520;11.018;2022-07-29T14:04:51;6.15;;;5.03;;
31674;SDS011;18276;45.520;11.018;2022-07-29T14:07:20;5.55;;;5.00;;
31674;SDS011;18276;45.520;11.018;2022-07-29T14:09:47;7.25;;;5.10;;
31674;SDS011;18276;45.520;11.018;2022-07-29T14:12:14;8.13;;;5.43;;
31674;SDS011;18276;45.520;11.018;2022-07-29T14:14:41;6.60;;;4.43;;
31674;SDS011;18276;45.520;11.018;2022-07-29T14:17:08;7.60;;;5.22;;
31674;SDS011;18276;45.520;11.018;2022-07-29T14:19:35;5.63;;;4.93;;
31674;SDS011;18276;45.520;11.018;2022-07-29T14:22:04;7.15;;;4.60;;
31674;SDS011;18276;45.520;11.018;2022-07-29T14:24:34;8.35;;;5.32;;
31674;SDS011;18276;45.520;11.018;2022-07-29T14:27:03;9.57;;;5.10;;
31674;SDS011;18276;45.520;11.018;2022-07-29T14:29:32;6.70;;;5.15;;
31674;SDS011;18276;45.520;11.018;2022-07-29T14:32:06;6.15;;;4.93;;
31674;SDS011;18276;45.520;11.018;2022-07-29T14:34:34;10.90;;;5.18;;
31674;SDS011;18276;45.520;11.018;2022-07-29T14:37:02;7.05;;;4.90;;
31674;SDS011;18276;45.520;11.018;2022-07-29T14:39:32;10.07;;;5.35;;
31674;SDS011;18276;45.520;11.018;2022-07-29T14:42:08;6.78;;;4.70;;
31674;SDS011;18276;45.520;11.018;2022-07-29T14:44:37;7.00;;;5.05;;
31674;SDS011;18276;45.520;11.018;2022-07-29T14:47:05;6.57;;;4.70;;
31674;SDS011;18276;45.520;11.018;2022-07-29T14:49:33;7.13;;;5.07;;
31674;SDS011;18276;45.520;11.018;2022-07-29T14:52:01;5.32;;;4.82;;
31674;SDS011;18276;45.520;11.018;2022-07-29T14:54:29;8.40;;;5.43;;
31674;SDS011;18276;45.520;11.018;2022-07-29T14:56:56;7.22;;;5.70;;
31674;SDS011;18276;45.520;11.018;2022-07-29T14:59:24;8.73;;;5.50;;
31674;SDS011;18276;45.520;11.018;2022-07-29T15:01:52;9.48;;;5.38;;
31674;SDS011;18276;45.520;11.018;2022-07-29T15:04:19;5.38;;;4.88;;
31674;SDS011;18276;45.520;11.018;2022-07-29T15:06:47;5.90;;;5.10;;
31674;SDS011;18276;45.520;11.018;2022-07-29T15:09:14;7.82;;;4.95;;
31674;SDS011;18276;45.520;11.018;2022-07-29T15:11:41;6.60;;;5.47;;
31674;SDS011;18276;45.520;11.018;2022-07-29T15:14:08;7.45;;;5.13;;
31674;SDS011;18276;45.520;11.018;2022-07-29T15:16:35;9.82;;;5.47;;
31674;SDS011;18276;45.520;11.018;2022-07-29T15:19:04;8.88;;;5.38;;
31674;SDS011;18276;45.520;11.018;2022-07-29T15:21:31;6.45;;;5.45;;
31674;SDS011;18276;45.520;11.018;2022-07-29T15:23:58;6.82;;;6.03;;
31674;SDS011;18276;45.520;11.018;2022-07-29T15:26:25;5.72;;;5.13;;
31674;SDS011;18276;45.520;11.018;2022-07-29T15:28:52;8.07;;;5.20;;
31674;SDS011;18276;45.520;11.018;2022-07-29T15:31:19;8.52;;;5.03;;